sensor_id;sensor_type;location;lat;lon;timestamp;P1;durP1;ratioP1;P2;durP2;ratioP2
11481;SDS011;5797;51.662;6.748;2022-11-11T00:01:41;8.47;;;3.97;;
11481;SDS011;5797;51.662;6.748;2022-11-11T00:04:47;11.47;;;4.43;;
11481;SDS011;5797;51.662;6.748;2022-11-11T00:07:53;7.20;;;3.03;;
11481;SDS011;5797;51.662;6.748;2022-11-11T00:11:03;6.73;;;3.27;;
11481;SDS011;5797;51.662;6.748;2022-11-11T00:14:10;10.43;;;4.30;;
11481;SDS011;5797;51.662;6.748;2022-11-11T00:17:17;8.40;;;3.97;;
11481;SDS011;5797;51.662;6.748;2022-11-11T00:20:41;12.47;;;3.87;;
11481;SDS011;5797;51.662;6.748;2022-11-11T00:24:04;9.90;;;3.53;;
11481;SDS011;5797;51.662;6.748;2022-11-11T00:27:28;9.83;;;3.93;;
11481;SDS011;5797;51.662;6.748;2022-11-11T00:30:34;9.43;;;4.23;;
11481;SDS011;5797;51.662;6.748;2022-11-11T00:33:41;5.57;;;3.50;;
11481;SDS011;5797;51.662;6.748;2022-11-11T00:36:47;12.50;;;4.10;;
11481;SDS011;5797;51.662;6.748;2022-11-11T00:39:52;9.47;;;3.90;;
11481;SDS011;5797;51.662;6.748;2022-11-11T00:42:58;10.17;;;3.70;;
11481;SDS011;5797;51.662;6.748;2022-11-11T00:46:04;10.60;;;3.63;;
11481;SDS011;5797;51.662;6.748;2022-11-11T00:49:38;6.67;;;3.60;;
11481;SDS011;5797;51.662;6.748;2022-11-11T00:53:17;6.47;;;3.63;;
11481;SDS011;5797;51.662;6.748;2022-11-11T00:56:29;9.97;;;4.00;;
11481;SDS011;5797;51.662;6.748;2022-11-11T00:59:36;14.90;;;3.73;;
11481;SDS011;5797;51.662;6.748;2022-11-11T01:02:43;7.60;;;3.90;;
11481;SDS011;5797;51.662;6.748;2022-11-11T01:05:50;13.30;;;3.93;;
11481;SDS011;5797;51.662;6.748;2022-11-11T01:08:57;10.57;;;4.30;;
11481;SDS011;5797;51.662;6.748;2022-11-11T01:12:06;6.67;;;3.67;;
11481;SDS011;5797;51.662;6.748;2022-11-11T01:15:12;8.17;;;4.23;;
11481;SDS011;5797;51.662;6.748;2022-11-11T01:18:18;9.07;;;3.83;;
11481;SDS011;5797;51.662;6.748;2022-11-11T01:21:28;9.03;;;4.20;;
11481;SDS011;5797;51.662;6.748;2022-11-11T01:24:35;10.97;;;4.17;;
11481;SDS011;5797;51.662;6.748;2022-11-11T01:27:41;9.87;;;3.23;;
11481;SDS011;5797;51.662;6.748;2022-11-11T01:30:47;5.50;;;4.07;;
11481;SDS011;5797;51.662;6.748;2022-11-11T01:33:53;5.63;;;3.40;;
11481;SDS011;5797;51.662;6.748;2022-11-11T01:37:00;8.70;;;3.13;;
11481;SDS011;5797;51.662;6.748;2022-11-11T01:40:06;6.37;;;3.63;;
11481;SDS011;5797;51.662;6.748;2022-11-11T01:43:15;7.07;;;3.57;;
11481;SDS011;5797;51.662;6.748;2022-11-11T01:46:25;9.23;;;3.93;;
11481;SDS011;5797;51.662;6.748;2022-11-11T01:49:35;10.63;;;4.33;;
11481;SDS011;5797;51.662;6.748;2022-11-11T01:52:44;6.20;;;4.23;;
11481;SDS011;5797;51.662;6.748;2022-11-11T01:55:53;10.20;;;3.73;;
11481;SDS011;5797;51.662;6.748;2022-11-11T01:59:01;5.73;;;3.60;;
11481;SDS011;5797;51.662;6.748;2022-11-11T02:02:11;5.83;;;3.67;;
11481;SDS011;5797;51.662;6.748;2022-11-11T02:05:21;13.77;;;4.07;;
11481;SDS011;5797;51.662;6.748;2022-11-11T02:08:46;7.67;;;3.40;;
11481;SDS011;5797;51.662;6.748;2022-11-11T02:11:53;5.63;;;3.50;;
11481;SDS011;5797;51.662;6.748;2022-11-11T02:15:17;7.90;;;3.93;;
11481;SDS011;5797;51.662;6.748;2022-11-11T02:18:23;7.40;;;3.67;;
11481;SDS011;5797;51.662;6.748;2022-11-11T02:21:32;5.27;;;3.20;;
11481;SDS011;5797;51.662;6.748;2022-11-11T02:24:42;6.37;;;3.57;;
11481;SDS011;5797;51.662;6.748;2022-11-11T02:27:50;6.87;;;3.50;;
11481;SDS011;5797;51.662;6.748;2022-11-11T02:30:57;9.93;;;3.90;;
11481;SDS011;5797;51.662;6.748;2022-11-11T02:34:03;8.47;;;3.33;;
11481;SDS011;5797;51.662;6.748;2022-11-11T02:37:09;7.37;;;2.93;;
11481;SDS011;5797;51.662;6.748;2022-11-11T02:40:17;9.87;;;3.50;;
11481;SDS011;5797;51.662;6.748;2022-11-11T02:43:26;8.93;;;3.80;;
11481;SDS011;5797;51.662;6.748;2022-11-11T02:46:33;7.07;;;3.53;;
11481;SDS011;5797;51.662;6.748;2022-11-11T02:49:40;6.73;;;3.57;;
11481;SDS011;5797;51.662;6.748;2022-11-11T02:52:46;7.30;;;3.40;;
11481;SDS011;5797;51.662;6.748;2022-11-11T02:55:53;7.53;;;3.53;;
11481;SDS011;5797;51.662;6.748;2022-11-11T02:58:59;6.80;;;3.27;;
11481;SDS011;5797;51.662;6.748;2022-11-11T03:02:06;6.07;;;3.17;;
11481;SDS011;5797;51.662;6.748;2022-11-11T03:05:12;5.87;;;3.37;;
11481;SDS011;5797;51.662;6.748;2022-11-11T03:08:19;6.23;;;3.80;;
11481;SDS011;5797;51.662;6.748;2022-11-11T03:11:27;10.63;;;3.90;;
11481;SDS011;5797;51.662;6.748;2022-11-11T03:14:34;6.33;;;3.30;;
11481;SDS011;5797;51.662;6.748;2022-11-11T03:17:40;6.37;;;3.00;;
11481;SDS011;5797;51.662;6.748;2022-11-11T03:20:46;3.70;;;2.93;;
11481;SDS011;5797;51.662;6.748;2022-11-11T03:24:30;5.53;;;3.40;;
11481;SDS011;5797;51.662;6.748;2022-11-11T03:27:51;4.80;;;3.03;;
11481;SDS011;5797;51.662;6.748;2022-11-11T03:30:57;7.73;;;3.77;;
11481;SDS011;5797;51.662;6.748;2022-11-11T03:34:07;8.50;;;3.67;;
11481;SDS011;5797;51.662;6.748;2022-11-11T03:37:22;8.87;;;3.20;;
11481;SDS011;5797;51.662;6.748;2022-11-11T03:40:46;8.03;;;3.63;;
11481;SDS011;5797;51.662;6.748;2022-11-11T03:43:54;3.80;;;2.90;;
11481;SDS011;5797;51.662;6.748;2022-11-11T03:47:01;7.00;;;3.20;;
11481;SDS011;5797;51.662;6.748;2022-11-11T03:50:07;6.20;;;3.37;;
11481;SDS011;5797;51.662;6.748;2022-11-11T03:53:13;7.43;;;3.60;;
11481;SDS011;5797;51.662;6.748;2022-11-11T03:56:20;6.27;;;3.47;;
11481;SDS011;5797;51.662;6.748;2022-11-11T03:59:27;8.07;;;3.83;;
11481;SDS011;5797;51.662;6.748;2022-11-11T04:02:36;6.10;;;3.67;;
11481;SDS011;5797;51.662;6.748;2022-11-11T04:06:16;7.93;;;3.70;;
11481;SDS011;5797;51.662;6.748;2022-11-11T04:09:44;6.40;;;3.40;;
11481;SDS011;5797;51.662;6.748;2022-11-11T04:13:17;8.53;;;3.90;;
11481;SDS011;5797;51.662;6.748;2022-11-11T04:17:04;7.57;;;4.03;;
11481;SDS011;5797;51.662;6.748;2022-11-11T04:20:10;6.50;;;3.33;;
11481;SDS011;5797;51.662;6.748;2022-11-11T04:23:34;9.27;;;3.57;;
11481;SDS011;5797;51.662;6.748;2022-11-11T04:26:41;11.83;;;3.97;;
11481;SDS011;5797;51.662;6.748;2022-11-11T04:29:46;8.63;;;3.87;;
11481;SDS011;5797;51.662;6.748;2022-11-11T04:32:55;7.80;;;3.90;;
11481;SDS011;5797;51.662;6.748;2022-11-11T04:36:01;8.43;;;4.70;;
11481;SDS011;5797;51.662;6.748;2022-11-11T04:39:07;8.50;;;3.70;;
11481;SDS011;5797;51.662;6.748;2022-11-11T04:42:43;11.13;;;4.20;;
11481;SDS011;5797;51.662;6.748;2022-11-11T04:45:49;8.03;;;5.30;;
11481;SDS011;5797;51.662;6.748;2022-11-11T04:48:55;8.37;;;4.30;;
11481;SDS011;5797;51.662;6.748;2022-11-11T04:52:02;5.73;;;3.63;;
11481;SDS011;5797;51.662;6.748;2022-11-11T04:55:26;6.20;;;3.87;;
11481;SDS011;5797;51.662;6.748;2022-11-11T04:58:50;9.37;;;4.73;;
11481;SDS011;5797;51.662;6.748;2022-11-11T05:02:16;6.57;;;3.67;;
11481;SDS011;5797;51.662;6.748;2022-11-11T05:05:42;5.33;;;3.17;;
11481;SDS011;5797;51.662;6.748;2022-11-11T05:09:06;7.20;;;4.10;;
11481;SDS011;5797;51.662;6.748;2022-11-11T05:12:12;6.97;;;3.57;;
11481;SDS011;5797;51.662;6.748;2022-11-11T05:15:18;6.03;;;4.03;;
11481;SDS011;5797;51.662;6.748;2022-11-11T05:18:44;10.67;;;4.10;;
11481;SDS011;5797;51.662;6.748;2022-11-11T05:22:10;8.63;;;4.03;;
11481;SDS011;5797;51.662;6.748;2022-11-11T05:25:17;10.67;;;3.67;;
11481;SDS011;5797;51.662;6.748;2022-11-11T05:28:29;7.40;;;3.87;;
11481;SDS011;5797;51.662;6.748;2022-11-11T05:31:35;8.93;;;3.67;;
11481;SDS011;5797;51.662;6.748;2022-11-11T05:34:41;11.63;;;4.00;;
11481;SDS011;5797;51.662;6.748;2022-11-11T05:37:50;7.27;;;3.57;;
11481;SDS011;5797;51.662;6.748;2022-11-11T05:41:09;6.23;;;4.00;;
11481;SDS011;5797;51.662;6.748;2022-11-11T05:44:16;7.10;;;3.90;;
11481;SDS011;5797;51.662;6.748;2022-11-11T05:47:22;7.83;;;4.00;;
11481;SDS011;5797;51.662;6.748;2022-11-11T05:50:28;8.03;;;4.27;;
11481;SDS011;5797;51.662;6.748;2022-11-11T05:53:40;8.97;;;4.63;;
11481;SDS011;5797;51.662;6.748;2022-11-11T05:56:46;14.30;;;5.27;;
11481;SDS011;5797;51.662;6.748;2022-11-11T05:59:52;12.23;;;5.07;;
11481;SDS011;5797;51.662;6.748;2022-11-11T06:03:00;7.90;;;4.90;;
11481;SDS011;5797;51.662;6.748;2022-11-11T06:06:07;10.57;;;5.73;;
11481;SDS011;5797;51.662;6.748;2022-11-11T06:09:16;13.90;;;5.27;;
11481;SDS011;5797;51.662;6.748;2022-11-11T06:12:22;13.60;;;5.70;;
11481;SDS011;5797;51.662;6.748;2022-11-11T06:15:28;11.57;;;5.30;;
11481;SDS011;5797;51.662;6.748;2022-11-11T06:18:34;13.50;;;6.13;;
11481;SDS011;5797;51.662;6.748;2022-11-11T06:21:40;13.13;;;6.13;;
11481;SDS011;5797;51.662;6.748;2022-11-11T06:25:03;16.33;;;6.37;;
11481;SDS011;5797;51.662;6.748;2022-11-11T06:28:24;15.93;;;6.80;;
11481;SDS011;5797;51.662;6.748;2022-11-11T06:31:31;13.10;;;6.43;;
11481;SDS011;5797;51.662;6.748;2022-11-11T06:34:38;15.17;;;6.97;;
11481;SDS011;5797;51.662;6.748;2022-11-11T06:37:44;15.40;;;6.03;;
11481;SDS011;5797;51.662;6.748;2022-11-11T06:40:51;15.53;;;6.80;;
11481;SDS011;5797;51.662;6.748;2022-11-11T06:43:58;11.43;;;5.80;;
11481;SDS011;5797;51.662;6.748;2022-11-11T06:47:04;15.03;;;5.90;;
11481;SDS011;5797;51.662;6.748;2022-11-11T06:50:11;15.13;;;5.70;;
11481;SDS011;5797;51.662;6.748;2022-11-11T06:53:18;10.27;;;5.50;;
11481;SDS011;5797;51.662;6.748;2022-11-11T06:56:27;13.30;;;5.33;;
11481;SDS011;5797;51.662;6.748;2022-11-11T06:59:33;8.83;;;5.10;;
11481;SDS011;5797;51.662;6.748;2022-11-11T07:02:40;10.07;;;5.00;;
11481;SDS011;5797;51.662;6.748;2022-11-11T07:05:46;10.70;;;5.03;;
11481;SDS011;5797;51.662;6.748;2022-11-11T07:08:56;9.33;;;4.83;;
11481;SDS011;5797;51.662;6.748;2022-11-11T07:12:03;7.37;;;4.03;;
11481;SDS011;5797;51.662;6.748;2022-11-11T07:15:11;12.30;;;4.43;;
11481;SDS011;5797;51.662;6.748;2022-11-11T07:18:17;10.53;;;4.57;;
11481;SDS011;5797;51.662;6.748;2022-11-11T07:21:24;9.70;;;4.50;;
11481;SDS011;5797;51.662;6.748;2022-11-11T07:24:30;10.33;;;4.90;;
11481;SDS011;5797;51.662;6.748;2022-11-11T07:27:38;7.40;;;4.20;;
11481;SDS011;5797;51.662;6.748;2022-11-11T07:30:48;6.67;;;3.57;;
11481;SDS011;5797;51.662;6.748;2022-11-11T07:33:55;8.83;;;4.27;;
11481;SDS011;5797;51.662;6.748;2022-11-11T07:37:01;9.87;;;4.30;;
11481;SDS011;5797;51.662;6.748;2022-11-11T07:40:08;8.67;;;4.07;;
11481;SDS011;5797;51.662;6.748;2022-11-11T07:43:16;9.13;;;4.17;;
11481;SDS011;5797;51.662;6.748;2022-11-11T07:46:22;9.17;;;4.90;;
11481;SDS011;5797;51.662;6.748;2022-11-11T07:49:29;7.13;;;4.10;;
11481;SDS011;5797;51.662;6.748;2022-11-11T07:52:35;8.70;;;4.00;;
11481;SDS011;5797;51.662;6.748;2022-11-11T07:55:43;6.27;;;3.30;;
11481;SDS011;5797;51.662;6.748;2022-11-11T07:58:51;6.37;;;3.37;;
11481;SDS011;5797;51.662;6.748;2022-11-11T08:01:58;7.13;;;4.20;;
11481;SDS011;5797;51.662;6.748;2022-11-11T08:05:04;7.23;;;3.80;;
11481;SDS011;5797;51.662;6.748;2022-11-11T08:08:10;9.03;;;4.87;;
11481;SDS011;5797;51.662;6.748;2022-11-11T08:11:17;6.50;;;3.97;;
11481;SDS011;5797;51.662;6.748;2022-11-11T08:14:45;9.47;;;4.77;;
11481;SDS011;5797;51.662;6.748;2022-11-11T08:17:50;9.17;;;4.30;;
11481;SDS011;5797;51.662;6.748;2022-11-11T08:20:56;7.37;;;4.33;;
11481;SDS011;5797;51.662;6.748;2022-11-11T08:24:03;6.07;;;3.80;;
11481;SDS011;5797;51.662;6.748;2022-11-11T08:27:30;9.90;;;4.77;;
11481;SDS011;5797;51.662;6.748;2022-11-11T08:30:37;14.97;;;4.90;;
11481;SDS011;5797;51.662;6.748;2022-11-11T08:33:43;11.47;;;4.93;;
11481;SDS011;5797;51.662;6.748;2022-11-11T08:36:50;8.50;;;4.60;;
11481;SDS011;5797;51.662;6.748;2022-11-11T08:39:56;9.30;;;4.10;;
11481;SDS011;5797;51.662;6.748;2022-11-11T08:43:03;7.47;;;4.37;;
11481;SDS011;5797;51.662;6.748;2022-11-11T08:46:11;11.60;;;4.87;;
11481;SDS011;5797;51.662;6.748;2022-11-11T08:49:18;10.23;;;4.53;;
11481;SDS011;5797;51.662;6.748;2022-11-11T08:52:24;7.27;;;4.43;;
11481;SDS011;5797;51.662;6.748;2022-11-11T08:55:30;8.03;;;4.33;;
11481;SDS011;5797;51.662;6.748;2022-11-11T08:58:37;13.80;;;4.20;;
11481;SDS011;5797;51.662;6.748;2022-11-11T09:01:44;8.57;;;4.17;;
11481;SDS011;5797;51.662;6.748;2022-11-11T09:04:51;5.47;;;3.93;;
11481;SDS011;5797;51.662;6.748;2022-11-11T09:07:59;9.13;;;4.27;;
11481;SDS011;5797;51.662;6.748;2022-11-11T09:11:06;6.80;;;3.87;;
11481;SDS011;5797;51.662;6.748;2022-11-11T09:14:13;11.17;;;5.03;;
11481;SDS011;5797;51.662;6.748;2022-11-11T09:17:21;7.93;;;4.10;;
11481;SDS011;5797;51.662;6.748;2022-11-11T09:20:27;10.83;;;4.33;;
11481;SDS011;5797;51.662;6.748;2022-11-11T09:23:34;6.70;;;3.50;;
11481;SDS011;5797;51.662;6.748;2022-11-11T09:26:40;6.17;;;4.47;;
11481;SDS011;5797;51.662;6.748;2022-11-11T09:29:46;9.57;;;4.03;;
11481;SDS011;5797;51.662;6.748;2022-11-11T09:32:59;11.07;;;5.10;;
11481;SDS011;5797;51.662;6.748;2022-11-11T09:36:06;10.97;;;4.50;;
11481;SDS011;5797;51.662;6.748;2022-11-11T09:39:12;9.13;;;4.10;;
11481;SDS011;5797;51.662;6.748;2022-11-11T09:42:22;7.27;;;3.90;;
11481;SDS011;5797;51.662;6.748;2022-11-11T09:45:38;7.43;;;4.27;;
11481;SDS011;5797;51.662;6.748;2022-11-11T09:48:56;8.43;;;4.37;;
11481;SDS011;5797;51.662;6.748;2022-11-11T09:52:15;8.13;;;4.30;;
11481;SDS011;5797;51.662;6.748;2022-11-11T09:55:24;6.80;;;4.10;;
11481;SDS011;5797;51.662;6.748;2022-11-11T09:58:34;9.50;;;4.30;;
11481;SDS011;5797;51.662;6.748;2022-11-11T10:01:44;6.90;;;4.17;;
11481;SDS011;5797;51.662;6.748;2022-11-11T10:04:54;12.27;;;4.10;;
11481;SDS011;5797;51.662;6.748;2022-11-11T10:08:03;7.10;;;3.70;;
11481;SDS011;5797;51.662;6.748;2022-11-11T10:11:13;6.67;;;4.10;;
11481;SDS011;5797;51.662;6.748;2022-11-11T10:14:21;8.03;;;4.23;;
11481;SDS011;5797;51.662;6.748;2022-11-11T10:17:30;7.47;;;3.10;;
11481;SDS011;5797;51.662;6.748;2022-11-11T10:20:40;7.27;;;3.77;;
11481;SDS011;5797;51.662;6.748;2022-11-11T10:23:47;7.67;;;4.17;;
11481;SDS011;5797;51.662;6.748;2022-11-11T10:26:53;6.13;;;3.50;;
11481;SDS011;5797;51.662;6.748;2022-11-11T10:30:00;6.50;;;3.17;;
11481;SDS011;5797;51.662;6.748;2022-11-11T10:33:10;6.93;;;3.87;;
11481;SDS011;5797;51.662;6.748;2022-11-11T10:36:20;7.43;;;3.60;;
11481;SDS011;5797;51.662;6.748;2022-11-11T10:39:32;4.47;;;3.10;;
11481;SDS011;5797;51.662;6.748;2022-11-11T10:42:43;7.83;;;3.10;;
11481;SDS011;5797;51.662;6.748;2022-11-11T10:45:52;4.37;;;3.10;;
11481;SDS011;5797;51.662;6.748;2022-11-11T10:49:04;5.97;;;3.13;;
11481;SDS011;5797;51.662;6.748;2022-11-11T10:52:17;4.07;;;2.63;;
11481;SDS011;5797;51.662;6.748;2022-11-11T10:55:27;4.43;;;2.60;;
11481;SDS011;5797;51.662;6.748;2022-11-11T10:58:36;11.13;;;3.47;;
11481;SDS011;5797;51.662;6.748;2022-11-11T11:01:45;4.37;;;3.10;;
11481;SDS011;5797;51.662;6.748;2022-11-11T11:04:55;4.43;;;2.40;;
11481;SDS011;5797;51.662;6.748;2022-11-11T11:08:07;6.33;;;2.70;;
11481;SDS011;5797;51.662;6.748;2022-11-11T11:11:15;3.70;;;2.17;;
11481;SDS011;5797;51.662;6.748;2022-11-11T11:14:27;5.27;;;2.53;;
11481;SDS011;5797;51.662;6.748;2022-11-11T11:17:35;4.33;;;2.40;;
11481;SDS011;5797;51.662;6.748;2022-11-11T11:20:53;6.10;;;2.47;;
11481;SDS011;5797;51.662;6.748;2022-11-11T11:24:02;4.97;;;2.70;;
11481;SDS011;5797;51.662;6.748;2022-11-11T11:27:08;2.53;;;1.97;;
11481;SDS011;5797;51.662;6.748;2022-11-11T11:30:15;4.37;;;1.87;;
11481;SDS011;5797;51.662;6.748;2022-11-11T11:33:22;7.73;;;2.23;;
11481;SDS011;5797;51.662;6.748;2022-11-11T11:36:28;3.20;;;2.20;;
11481;SDS011;5797;51.662;6.748;2022-11-11T11:39:35;3.30;;;1.90;;
11481;SDS011;5797;51.662;6.748;2022-11-11T11:42:42;3.13;;;1.90;;
11481;SDS011;5797;51.662;6.748;2022-11-11T11:45:52;2.80;;;1.87;;
11481;SDS011;5797;51.662;6.748;2022-11-11T11:49:03;3.97;;;1.90;;
11481;SDS011;5797;51.662;6.748;2022-11-11T11:52:18;2.70;;;1.70;;
11481;SDS011;5797;51.662;6.748;2022-11-11T11:55:30;3.53;;;1.83;;
11481;SDS011;5797;51.662;6.748;2022-11-11T11:58:39;3.00;;;1.67;;
11481;SDS011;5797;51.662;6.748;2022-11-11T12:01:51;3.27;;;1.83;;
11481;SDS011;5797;51.662;6.748;2022-11-11T12:05:07;4.17;;;1.67;;
11481;SDS011;5797;51.662;6.748;2022-11-11T12:08:20;4.97;;;1.63;;
11481;SDS011;5797;51.662;6.748;2022-11-11T12:11:35;2.77;;;1.80;;
11481;SDS011;5797;51.662;6.748;2022-11-11T12:14:51;5.03;;;1.83;;
11481;SDS011;5797;51.662;6.748;2022-11-11T12:18:14;2.47;;;1.50;;
11481;SDS011;5797;51.662;6.748;2022-11-11T12:21:47;3.40;;;1.60;;
11481;SDS011;5797;51.662;6.748;2022-11-11T12:25:04;1.60;;;1.47;;
11481;SDS011;5797;51.662;6.748;2022-11-11T12:28:22;5.60;;;2.30;;
11481;SDS011;5797;51.662;6.748;2022-11-11T12:31:39;5.03;;;1.70;;
11481;SDS011;5797;51.662;6.748;2022-11-11T12:35:03;2.97;;;1.70;;
11481;SDS011;5797;51.662;6.748;2022-11-11T12:38:19;2.30;;;1.57;;
11481;SDS011;5797;51.662;6.748;2022-11-11T12:41:37;2.97;;;1.70;;
11481;SDS011;5797;51.662;6.748;2022-11-11T12:44:53;3.10;;;1.63;;
11481;SDS011;5797;51.662;6.748;2022-11-11T12:48:04;4.27;;;1.57;;
11481;SDS011;5797;51.662;6.748;2022-11-11T12:51:34;2.77;;;1.90;;
11481;SDS011;5797;51.662;6.748;2022-11-11T12:54:47;5.63;;;1.70;;
11481;SDS011;5797;51.662;6.748;2022-11-11T12:58:07;2.63;;;1.60;;
11481;SDS011;5797;51.662;6.748;2022-11-11T13:01:23;3.77;;;1.93;;
11481;SDS011;5797;51.662;6.748;2022-11-11T13:04:42;3.13;;;2.00;;
11481;SDS011;5797;51.662;6.748;2022-11-11T13:08:08;3.40;;;2.07;;
11481;SDS011;5797;51.662;6.748;2022-11-11T13:11:32;3.03;;;1.90;;
11481;SDS011;5797;51.662;6.748;2022-11-11T13:14:50;2.80;;;2.03;;
11481;SDS011;5797;51.662;6.748;2022-11-11T13:18:06;3.67;;;1.87;;
11481;SDS011;5797;51.662;6.748;2022-11-11T13:21:17;7.77;;;2.20;;
11481;SDS011;5797;51.662;6.748;2022-11-11T13:24:25;3.07;;;1.50;;
11481;SDS011;5797;51.662;6.748;2022-11-11T13:27:36;3.10;;;1.87;;
11481;SDS011;5797;51.662;6.748;2022-11-11T13:30:47;3.03;;;2.17;;
11481;SDS011;5797;51.662;6.748;2022-11-11T13:34:03;4.07;;;2.37;;
11481;SDS011;5797;51.662;6.748;2022-11-11T13:37:18;6.67;;;2.40;;
11481;SDS011;5797;51.662;6.748;2022-11-11T13:40:32;3.77;;;2.17;;
11481;SDS011;5797;51.662;6.748;2022-11-11T13:43:41;5.40;;;2.57;;
11481;SDS011;5797;51.662;6.748;2022-11-11T13:46:49;5.13;;;2.40;;
11481;SDS011;5797;51.662;6.748;2022-11-11T13:49:57;6.13;;;2.50;;
11481;SDS011;5797;51.662;6.748;2022-11-11T13:53:11;7.23;;;3.37;;
11481;SDS011;5797;51.662;6.748;2022-11-11T13:56:21;8.30;;;3.90;;
11481;SDS011;5797;51.662;6.748;2022-11-11T13:59:30;7.87;;;4.57;;
11481;SDS011;5797;51.662;6.748;2022-11-11T14:02:38;8.73;;;4.20;;
11481;SDS011;5797;51.662;6.748;2022-11-11T14:05:45;8.80;;;4.80;;
11481;SDS011;5797;51.662;6.748;2022-11-11T14:08:52;10.23;;;4.27;;
11481;SDS011;5797;51.662;6.748;2022-11-11T14:15:34;8.93;;;3.97;;
11481;SDS011;5797;51.662;6.748;2022-11-11T14:18:41;7.27;;;4.20;;
11481;SDS011;5797;51.662;6.748;2022-11-11T14:21:49;7.47;;;4.37;;
11481;SDS011;5797;51.662;6.748;2022-11-11T14:25:09;10.20;;;4.53;;
11481;SDS011;5797;51.662;6.748;2022-11-11T14:28:25;7.60;;;3.53;;
11481;SDS011;5797;51.662;6.748;2022-11-11T14:31:51;8.50;;;3.93;;
11481;SDS011;5797;51.662;6.748;2022-11-11T14:38:40;9.30;;;4.80;;
11481;SDS011;5797;51.662;6.748;2022-11-11T14:41:50;8.67;;;4.40;;
11481;SDS011;5797;51.662;6.748;2022-11-11T14:44:56;8.23;;;4.10;;
11481;SDS011;5797;51.662;6.748;2022-11-11T14:48:14;7.60;;;4.23;;
11481;SDS011;5797;51.662;6.748;2022-11-11T14:51:48;12.33;;;4.60;;
11481;SDS011;5797;51.662;6.748;2022-11-11T14:55:00;9.57;;;4.40;;
11481;SDS011;5797;51.662;6.748;2022-11-11T14:58:11;10.23;;;4.23;;
11481;SDS011;5797;51.662;6.748;2022-11-11T15:01:18;7.93;;;4.23;;
11481;SDS011;5797;51.662;6.748;2022-11-11T15:04:25;9.13;;;4.50;;
11481;SDS011;5797;51.662;6.748;2022-11-11T15:07:43;7.73;;;4.10;;
11481;SDS011;5797;51.662;6.748;2022-11-11T15:11:02;11.23;;;4.27;;
11481;SDS011;5797;51.662;6.748;2022-11-11T15:14:21;9.10;;;4.17;;
11481;SDS011;5797;51.662;6.748;2022-11-11T15:17:34;11.73;;;3.90;;
11481;SDS011;5797;51.662;6.748;2022-11-11T15:20:49;13.20;;;4.77;;
11481;SDS011;5797;51.662;6.748;2022-11-11T15:24:03;9.77;;;4.53;;
11481;SDS011;5797;51.662;6.748;2022-11-11T15:27:21;9.43;;;4.03;;
11481;SDS011;5797;51.662;6.748;2022-11-11T15:30:37;11.53;;;4.80;;
11481;SDS011;5797;51.662;6.748;2022-11-11T15:33:52;10.67;;;5.13;;
11481;SDS011;5797;51.662;6.748;2022-11-11T15:37:02;9.80;;;4.43;;
11481;SDS011;5797;51.662;6.748;2022-11-11T15:40:16;13.53;;;4.77;;
11481;SDS011;5797;51.662;6.748;2022-11-11T15:43:26;10.83;;;4.33;;
11481;SDS011;5797;51.662;6.748;2022-11-11T15:46:33;13.90;;;4.23;;
11481;SDS011;5797;51.662;6.748;2022-11-11T15:49:41;12.97;;;4.23;;
11481;SDS011;5797;51.662;6.748;2022-11-11T15:52:52;13.40;;;4.57;;
11481;SDS011;5797;51.662;6.748;2022-11-11T15:55:58;15.00;;;4.27;;
11481;SDS011;5797;51.662;6.748;2022-11-11T15:59:16;8.90;;;3.97;;
11481;SDS011;5797;51.662;6.748;2022-11-11T16:02:25;16.47;;;4.60;;
11481;SDS011;5797;51.662;6.748;2022-11-11T16:05:35;8.17;;;4.10;;
11481;SDS011;5797;51.662;6.748;2022-11-11T16:08:41;10.53;;;4.23;;
11481;SDS011;5797;51.662;6.748;2022-11-11T16:11:49;11.73;;;4.47;;
11481;SDS011;5797;51.662;6.748;2022-11-11T16:14:58;9.43;;;4.30;;
11481;SDS011;5797;51.662;6.748;2022-11-11T16:18:10;7.87;;;4.20;;
11481;SDS011;5797;51.662;6.748;2022-11-11T16:21:21;11.27;;;4.10;;
11481;SDS011;5797;51.662;6.748;2022-11-11T16:24:31;10.63;;;3.97;;
11481;SDS011;5797;51.662;6.748;2022-11-11T16:27:39;6.80;;;3.93;;
11481;SDS011;5797;51.662;6.748;2022-11-11T16:30:46;11.33;;;3.80;;
11481;SDS011;5797;51.662;6.748;2022-11-11T16:33:53;10.60;;;3.80;;
11481;SDS011;5797;51.662;6.748;2022-11-11T16:37:00;8.50;;;3.90;;
11481;SDS011;5797;51.662;6.748;2022-11-11T16:40:39;10.50;;;4.20;;
11481;SDS011;5797;51.662;6.748;2022-11-11T16:43:47;7.23;;;3.70;;
11481;SDS011;5797;51.662;6.748;2022-11-11T16:46:56;11.57;;;3.67;;
11481;SDS011;5797;51.662;6.748;2022-11-11T16:50:03;10.97;;;3.70;;
11481;SDS011;5797;51.662;6.748;2022-11-11T16:53:11;16.07;;;4.40;;
11481;SDS011;5797;51.662;6.748;2022-11-11T16:56:31;8.07;;;3.43;;
11481;SDS011;5797;51.662;6.748;2022-11-11T16:59:39;11.03;;;3.83;;
11481;SDS011;5797;51.662;6.748;2022-11-11T17:02:50;7.97;;;3.87;;
11481;SDS011;5797;51.662;6.748;2022-11-11T17:06:12;9.57;;;3.40;;
11481;SDS011;5797;51.662;6.748;2022-11-11T17:09:28;6.37;;;3.03;;
11481;SDS011;5797;51.662;6.748;2022-11-11T17:12:36;8.27;;;3.43;;
11481;SDS011;5797;51.662;6.748;2022-11-11T17:15:42;6.27;;;3.10;;
11481;SDS011;5797;51.662;6.748;2022-11-11T17:18:50;9.40;;;3.87;;
11481;SDS011;5797;51.662;6.748;2022-11-11T17:22:03;7.37;;;3.70;;
11481;SDS011;5797;51.662;6.748;2022-11-11T17:25:10;9.97;;;4.17;;
11481;SDS011;5797;51.662;6.748;2022-11-11T17:28:16;5.53;;;3.60;;
11481;SDS011;5797;51.662;6.748;2022-11-11T17:31:23;8.33;;;4.00;;
11481;SDS011;5797;51.662;6.748;2022-11-11T17:34:30;4.87;;;3.50;;
11481;SDS011;5797;51.662;6.748;2022-11-11T17:37:36;7.23;;;3.90;;
11481;SDS011;5797;51.662;6.748;2022-11-11T17:40:43;6.10;;;3.70;;
11481;SDS011;5797;51.662;6.748;2022-11-11T17:43:50;9.50;;;4.20;;
11481;SDS011;5797;51.662;6.748;2022-11-11T17:46:56;8.67;;;3.90;;
11481;SDS011;5797;51.662;6.748;2022-11-11T17:50:03;9.10;;;4.77;;
11481;SDS011;5797;51.662;6.748;2022-11-11T17:53:10;9.90;;;5.33;;
11481;SDS011;5797;51.662;6.748;2022-11-11T17:56:19;11.93;;;4.57;;
11481;SDS011;5797;51.662;6.748;2022-11-11T17:59:26;10.27;;;4.70;;
11481;SDS011;5797;51.662;6.748;2022-11-11T18:02:34;8.47;;;4.23;;
11481;SDS011;5797;51.662;6.748;2022-11-11T18:05:41;11.10;;;4.03;;
11481;SDS011;5797;51.662;6.748;2022-11-11T18:08:47;9.93;;;3.57;;
11481;SDS011;5797;51.662;6.748;2022-11-11T18:11:53;6.53;;;3.73;;
11481;SDS011;5797;51.662;6.748;2022-11-11T18:14:59;10.17;;;3.67;;
11481;SDS011;5797;51.662;6.748;2022-11-11T18:18:05;7.83;;;3.37;;
11481;SDS011;5797;51.662;6.748;2022-11-11T18:21:12;6.80;;;3.73;;
11481;SDS011;5797;51.662;6.748;2022-11-11T18:24:19;7.57;;;3.10;;
11481;SDS011;5797;51.662;6.748;2022-11-11T18:27:25;10.97;;;3.70;;
11481;SDS011;5797;51.662;6.748;2022-11-11T18:30:30;7.30;;;3.60;;
11481;SDS011;5797;51.662;6.748;2022-11-11T18:33:36;6.03;;;3.23;;
11481;SDS011;5797;51.662;6.748;2022-11-11T18:36:50;7.90;;;3.43;;
11481;SDS011;5797;51.662;6.748;2022-11-11T18:39:57;13.83;;;2.93;;
11481;SDS011;5797;51.662;6.748;2022-11-11T18:43:03;6.27;;;2.80;;
11481;SDS011;5797;51.662;6.748;2022-11-11T18:46:09;6.43;;;3.33;;
11481;SDS011;5797;51.662;6.748;2022-11-11T18:49:16;6.53;;;3.43;;
11481;SDS011;5797;51.662;6.748;2022-11-11T18:52:24;9.03;;;3.60;;
11481;SDS011;5797;51.662;6.748;2022-11-11T18:55:30;4.63;;;2.97;;
11481;SDS011;5797;51.662;6.748;2022-11-11T18:58:37;10.33;;;3.13;;
11481;SDS011;5797;51.662;6.748;2022-11-11T19:01:43;6.60;;;2.80;;
11481;SDS011;5797;51.662;6.748;2022-11-11T19:04:52;4.40;;;3.03;;
11481;SDS011;5797;51.662;6.748;2022-11-11T19:07:59;5.90;;;3.20;;
11481;SDS011;5797;51.662;6.748;2022-11-11T19:11:06;7.13;;;3.40;;
11481;SDS011;5797;51.662;6.748;2022-11-11T19:14:13;5.70;;;3.77;;
11481;SDS011;5797;51.662;6.748;2022-11-11T19:17:26;7.03;;;3.13;;
11481;SDS011;5797;51.662;6.748;2022-11-11T19:20:32;4.83;;;2.87;;
11481;SDS011;5797;51.662;6.748;2022-11-11T19:23:40;8.03;;;2.87;;
11481;SDS011;5797;51.662;6.748;2022-11-11T19:26:50;7.03;;;3.00;;
11481;SDS011;5797;51.662;6.748;2022-11-11T19:30:06;6.00;;;2.70;;